Archival Weather

Lamerd

Lamerd, Iran (OISR)

Report from: Saturday, April 1, 2023 3:00 PM UTC
Current time: Sunday, May 19, 2024 8:15 AM UTC

Current weather – Weather history – Daily summaries
Weather forecast

Temperature25.0°C (77.0°F)
Dew point13.0°C (55.4°F)
Winds 12 kts (6.2 m/s, 13.8 mph) West-Northwest (290°)
Clouds Sky clear
Altimeter29.84 in.Hg (1010 mB)
Relative humidity47 %
Density altitude1,460 ft. (445 m)
Remarks Ceiling and visibility OK
No significant changes expected in the next two hours
Flight conditions Visual Meteorological Conditions
Raw dataOISR 011500Z 29012KT CAVOK 25/13 Q1010 A2984 NOSIG
An error has occurred. This application may no longer respond until reloaded. Reload 🗙